sensor_id;sensor_type;location;lat;lon;timestamp;P1;durP1;ratioP1;P2;durP2;ratioP2
72464;SDS011;60471;52.150;4.508;2023-06-10T00:00:45;23.70;;;11.73;;
72464;SDS011;60471;52.150;4.508;2023-06-10T00:03:11;23.63;;;12.00;;
72464;SDS011;60471;52.150;4.508;2023-06-10T00:05:38;26.10;;;12.02;;
72464;SDS011;60471;52.150;4.508;2023-06-10T00:08:07;23.40;;;11.88;;
72464;SDS011;60471;52.150;4.508;2023-06-10T00:10:34;21.08;;;11.50;;
72464;SDS011;60471;52.150;4.508;2023-06-10T00:13:05;20.52;;;11.20;;
72464;SDS011;60471;52.150;4.508;2023-06-10T00:15:35;23.38;;;11.48;;
72464;SDS011;60471;52.150;4.508;2023-06-10T00:18:02;22.45;;;11.48;;
72464;SDS011;60471;52.150;4.508;2023-06-10T00:20:29;28.88;;;11.48;;
72464;SDS011;60471;52.150;4.508;2023-06-10T00:22:57;18.55;;;10.75;;
72464;SDS011;60471;52.150;4.508;2023-06-10T00:25:27;26.60;;;11.73;;
72464;SDS011;60471;52.150;4.508;2023-06-10T00:27:53;21.30;;;10.55;;
72464;SDS011;60471;52.150;4.508;2023-06-10T00:30:19;21.50;;;10.15;;
72464;SDS011;60471;52.150;4.508;2023-06-10T00:32:46;22.42;;;10.48;;
72464;SDS011;60471;52.150;4.508;2023-06-10T00:35:12;20.02;;;9.35;;
72464;SDS011;60471;52.150;4.508;2023-06-10T00:37:38;20.50;;;9.45;;
72464;SDS011;60471;52.150;4.508;2023-06-10T00:40:05;17.65;;;8.57;;
72464;SDS011;60471;52.150;4.508;2023-06-10T00:42:34;15.07;;;8.00;;
72464;SDS011;60471;52.150;4.508;2023-06-10T00:45:01;16.02;;;7.13;;
72464;SDS011;60471;52.150;4.508;2023-06-10T00:47:27;16.60;;;7.45;;
72464;SDS011;60471;52.150;4.508;2023-06-10T00:49:56;15.20;;;6.32;;
72464;SDS011;60471;52.150;4.508;2023-06-10T00:52:24;16.15;;;6.75;;
72464;SDS011;60471;52.150;4.508;2023-06-10T00:54:55;14.55;;;5.97;;
72464;SDS011;60471;52.150;4.508;2023-06-10T00:57:21;16.40;;;5.93;;
72464;SDS011;60471;52.150;4.508;2023-06-10T00:59:47;15.55;;;5.82;;
72464;SDS011;60471;52.150;4.508;2023-06-10T01:02:15;13.88;;;6.20;;
72464;SDS011;60471;52.150;4.508;2023-06-10T01:04:42;15.57;;;6.40;;
72464;SDS011;60471;52.150;4.508;2023-06-10T01:07:17;14.57;;;6.65;;
72464;SDS011;60471;52.150;4.508;2023-06-10T01:15:37;19.05;;;8.18;;
72464;SDS011;60471;52.150;4.508;2023-06-10T01:18:06;20.15;;;8.40;;
72464;SDS011;60471;52.150;4.508;2023-06-10T01:20:41;17.42;;;8.30;;
72464;SDS011;60471;52.150;4.508;2023-06-10T01:23:10;14.77;;;8.38;;
72464;SDS011;60471;52.150;4.508;2023-06-10T01:25:37;17.90;;;9.20;;
72464;SDS011;60471;52.150;4.508;2023-06-10T01:30:59;18.42;;;9.85;;
72464;SDS011;60471;52.150;4.508;2023-06-10T01:34:07;20.80;;;10.25;;
72464;SDS011;60471;52.150;4.508;2023-06-10T01:36:38;16.35;;;9.07;;
72464;SDS011;60471;52.150;4.508;2023-06-10T01:39:10;22.98;;;9.13;;
72464;SDS011;60471;52.150;4.508;2023-06-10T01:41:38;19.17;;;9.65;;
72464;SDS011;60471;52.150;4.508;2023-06-10T01:44:06;20.10;;;9.25;;
72464;SDS011;60471;52.150;4.508;2023-06-10T01:46:32;19.23;;;9.23;;
72464;SDS011;60471;52.150;4.508;2023-06-10T01:48:58;17.80;;;9.70;;
72464;SDS011;60471;52.150;4.508;2023-06-10T01:51:24;19.20;;;10.00;;
72464;SDS011;60471;52.150;4.508;2023-06-10T01:53:51;22.17;;;10.05;;
72464;SDS011;60471;52.150;4.508;2023-06-10T01:56:17;19.73;;;10.50;;
72464;SDS011;60471;52.150;4.508;2023-06-10T01:58:45;18.92;;;10.38;;
72464;SDS011;60471;52.150;4.508;2023-06-10T02:01:12;19.63;;;10.73;;
72464;SDS011;60471;52.150;4.508;2023-06-10T02:03:40;18.63;;;10.55;;
72464;SDS011;60471;52.150;4.508;2023-06-10T02:06:06;20.63;;;11.68;;
72464;SDS011;60471;52.150;4.508;2023-06-10T02:08:32;22.02;;;11.77;;
72464;SDS011;60471;52.150;4.508;2023-06-10T02:10:59;22.40;;;11.80;;
72464;SDS011;60471;52.150;4.508;2023-06-10T02:13:25;20.00;;;12.32;;
72464;SDS011;60471;52.150;4.508;2023-06-10T02:15:51;26.35;;;12.77;;
72464;SDS011;60471;52.150;4.508;2023-06-10T02:18:19;22.92;;;13.80;;
72464;SDS011;60471;52.150;4.508;2023-06-10T02:20:46;21.77;;;13.55;;
72464;SDS011;60471;52.150;4.508;2023-06-10T02:23:12;25.30;;;13.73;;
72464;SDS011;60471;52.150;4.508;2023-06-10T02:25:39;24.45;;;13.38;;
72464;SDS011;60471;52.150;4.508;2023-06-10T02:28:05;28.13;;;14.30;;
72464;SDS011;60471;52.150;4.508;2023-06-10T02:30:31;21.55;;;13.13;;
72464;SDS011;60471;52.150;4.508;2023-06-10T02:32:58;21.40;;;12.55;;
72464;SDS011;60471;52.150;4.508;2023-06-10T02:35:24;26.30;;;14.18;;
72464;SDS011;60471;52.150;4.508;2023-06-10T02:37:51;23.50;;;13.27;;
72464;SDS011;60471;52.150;4.508;2023-06-10T02:40:17;20.92;;;12.18;;
72464;SDS011;60471;52.150;4.508;2023-06-10T02:42:43;22.33;;;12.50;;
72464;SDS011;60471;52.150;4.508;2023-06-10T02:45:09;23.83;;;12.25;;
72464;SDS011;60471;52.150;4.508;2023-06-10T02:47:37;21.90;;;11.40;;
72464;SDS011;60471;52.150;4.508;2023-06-10T02:50:04;19.35;;;11.77;;
72464;SDS011;60471;52.150;4.508;2023-06-10T02:52:31;23.65;;;11.75;;
72464;SDS011;60471;52.150;4.508;2023-06-10T02:54:57;18.23;;;11.10;;
72464;SDS011;60471;52.150;4.508;2023-06-10T02:57:23;22.63;;;11.77;;
72464;SDS011;60471;52.150;4.508;2023-06-10T02:59:50;20.88;;;11.95;;
72464;SDS011;60471;52.150;4.508;2023-06-10T03:02:17;22.63;;;11.77;;
72464;SDS011;60471;52.150;4.508;2023-06-10T03:04:43;19.52;;;11.77;;
72464;SDS011;60471;52.150;4.508;2023-06-10T03:07:10;22.05;;;10.05;;
72464;SDS011;60471;52.150;4.508;2023-06-10T03:09:37;22.33;;;10.98;;
72464;SDS011;60471;52.150;4.508;2023-06-10T03:12:03;21.25;;;10.43;;
72464;SDS011;60471;52.150;4.508;2023-06-10T03:14:30;19.15;;;10.15;;
72464;SDS011;60471;52.150;4.508;2023-06-10T03:16:56;20.88;;;10.25;;
72464;SDS011;60471;52.150;4.508;2023-06-10T03:19:23;19.23;;;10.20;;
72464;SDS011;60471;52.150;4.508;2023-06-10T03:21:49;16.77;;;9.30;;
72464;SDS011;60471;52.150;4.508;2023-06-10T03:24:23;18.05;;;8.93;;
72464;SDS011;60471;52.150;4.508;2023-06-10T03:26:49;19.73;;;9.77;;
72464;SDS011;60471;52.150;4.508;2023-06-10T03:29:15;16.30;;;8.27;;
72464;SDS011;60471;52.150;4.508;2023-06-10T03:31:42;20.38;;;9.88;;
72464;SDS011;60471;52.150;4.508;2023-06-10T03:34:08;22.48;;;10.05;;
72464;SDS011;60471;52.150;4.508;2023-06-10T03:36:34;22.52;;;10.00;;
72464;SDS011;60471;52.150;4.508;2023-06-10T03:39:03;20.30;;;10.55;;
72464;SDS011;60471;52.150;4.508;2023-06-10T03:41:29;20.73;;;10.82;;
72464;SDS011;60471;52.150;4.508;2023-06-10T03:43:55;23.38;;;11.32;;
72464;SDS011;60471;52.150;4.508;2023-06-10T03:46:21;21.05;;;11.55;;
72464;SDS011;60471;52.150;4.508;2023-06-10T03:48:48;25.15;;;13.32;;
72464;SDS011;60471;52.150;4.508;2023-06-10T03:51:14;28.08;;;14.55;;
72464;SDS011;60471;52.150;4.508;2023-06-10T03:53:40;29.02;;;14.57;;
72464;SDS011;60471;52.150;4.508;2023-06-10T03:56:07;25.17;;;13.90;;
72464;SDS011;60471;52.150;4.508;2023-06-10T03:58:33;28.25;;;14.63;;
72464;SDS011;60471;52.150;4.508;2023-06-10T04:00:59;23.40;;;13.50;;
72464;SDS011;60471;52.150;4.508;2023-06-10T04:03:25;26.75;;;13.88;;
72464;SDS011;60471;52.150;4.508;2023-06-10T04:05:53;22.30;;;12.43;;
72464;SDS011;60471;52.150;4.508;2023-06-10T04:08:19;18.70;;;11.55;;
72464;SDS011;60471;52.150;4.508;2023-06-10T04:10:46;22.85;;;11.32;;
72464;SDS011;60471;52.150;4.508;2023-06-10T04:13:12;22.40;;;11.02;;
72464;SDS011;60471;52.150;4.508;2023-06-10T04:15:40;21.17;;;12.35;;
72464;SDS011;60471;52.150;4.508;2023-06-10T04:18:06;21.73;;;11.82;;
72464;SDS011;60471;52.150;4.508;2023-06-10T04:20:32;21.83;;;12.32;;
72464;SDS011;60471;52.150;4.508;2023-06-10T04:22:58;20.55;;;11.85;;
72464;SDS011;60471;52.150;4.508;2023-06-10T04:25:25;26.35;;;12.88;;
72464;SDS011;60471;52.150;4.508;2023-06-10T04:27:51;21.67;;;12.73;;
72464;SDS011;60471;52.150;4.508;2023-06-10T04:30:18;26.95;;;12.48;;
72464;SDS011;60471;52.150;4.508;2023-06-10T04:32:44;23.65;;;13.10;;
72464;SDS011;60471;52.150;4.508;2023-06-10T04:35:11;20.73;;;11.57;;
72464;SDS011;60471;52.150;4.508;2023-06-10T04:37:38;20.45;;;11.50;;
72464;SDS011;60471;52.150;4.508;2023-06-10T04:40:06;19.60;;;11.10;;
72464;SDS011;60471;52.150;4.508;2023-06-10T04:42:33;18.70;;;10.68;;
72464;SDS011;60471;52.150;4.508;2023-06-10T04:45:00;19.02;;;10.18;;
72464;SDS011;60471;52.150;4.508;2023-06-10T04:47:27;21.77;;;10.60;;
72464;SDS011;60471;52.150;4.508;2023-06-10T04:49:54;19.30;;;10.65;;
72464;SDS011;60471;52.150;4.508;2023-06-10T04:52:20;25.42;;;10.50;;
72464;SDS011;60471;52.150;4.508;2023-06-10T04:54:46;21.63;;;11.10;;
72464;SDS011;60471;52.150;4.508;2023-06-10T04:57:14;20.02;;;10.98;;
72464;SDS011;60471;52.150;4.508;2023-06-10T04:59:40;22.20;;;11.48;;
72464;SDS011;60471;52.150;4.508;2023-06-10T05:02:06;23.98;;;11.38;;
72464;SDS011;60471;52.150;4.508;2023-06-10T05:04:33;24.60;;;10.95;;
72464;SDS011;60471;52.150;4.508;2023-06-10T05:06:59;23.65;;;10.27;;
72464;SDS011;60471;52.150;4.508;2023-06-10T05:09:25;23.58;;;10.43;;
72464;SDS011;60471;52.150;4.508;2023-06-10T05:11:51;19.73;;;10.95;;
72464;SDS011;60471;52.150;4.508;2023-06-10T05:14:19;20.13;;;10.57;;
72464;SDS011;60471;52.150;4.508;2023-06-10T05:16:46;20.15;;;10.25;;
72464;SDS011;60471;52.150;4.508;2023-06-10T05:19:16;27.08;;;10.52;;
72464;SDS011;60471;52.150;4.508;2023-06-10T05:21:43;19.88;;;10.57;;
72464;SDS011;60471;52.150;4.508;2023-06-10T05:24:11;19.38;;;9.93;;
72464;SDS011;60471;52.150;4.508;2023-06-10T05:26:37;27.00;;;10.27;;
72464;SDS011;60471;52.150;4.508;2023-06-10T05:29:04;22.85;;;9.75;;
72464;SDS011;60471;52.150;4.508;2023-06-10T05:31:31;21.40;;;9.80;;
72464;SDS011;60471;52.150;4.508;2023-06-10T05:33:57;17.52;;;9.38;;
72464;SDS011;60471;52.150;4.508;2023-06-10T05:36:23;19.65;;;9.38;;
72464;SDS011;60471;52.150;4.508;2023-06-10T05:38:53;15.38;;;8.65;;
72464;SDS011;60471;52.150;4.508;2023-06-10T05:41:19;17.40;;;8.73;;
72464;SDS011;60471;52.150;4.508;2023-06-10T05:43:46;15.52;;;7.28;;
72464;SDS011;60471;52.150;4.508;2023-06-10T05:46:12;16.10;;;7.47;;
72464;SDS011;60471;52.150;4.508;2023-06-10T05:48:38;16.77;;;6.95;;
72464;SDS011;60471;52.150;4.508;2023-06-10T05:51:05;15.32;;;6.70;;
72464;SDS011;60471;52.150;4.508;2023-06-10T05:53:32;13.57;;;6.32;;
72464;SDS011;60471;52.150;4.508;2023-06-10T05:55:58;13.20;;;5.90;;
72464;SDS011;60471;52.150;4.508;2023-06-10T05:58:24;13.82;;;6.15;;
72464;SDS011;60471;52.150;4.508;2023-06-10T06:00:50;20.00;;;6.22;;
72464;SDS011;60471;52.150;4.508;2023-06-10T06:03:17;18.17;;;6.15;;
72464;SDS011;60471;52.150;4.508;2023-06-10T06:05:43;15.23;;;5.72;;
72464;SDS011;60471;52.150;4.508;2023-06-10T06:08:11;13.95;;;6.10;;
72464;SDS011;60471;52.150;4.508;2023-06-10T06:10:39;13.10;;;6.45;;
72464;SDS011;60471;52.150;4.508;2023-06-10T06:13:05;20.48;;;6.00;;
72464;SDS011;60471;52.150;4.508;2023-06-10T06:15:31;10.48;;;5.20;;
72464;SDS011;60471;52.150;4.508;2023-06-10T06:17:57;15.02;;;6.03;;
72464;SDS011;60471;52.150;4.508;2023-06-10T06:20:24;14.23;;;6.32;;
72464;SDS011;60471;52.150;4.508;2023-06-10T06:22:50;15.88;;;6.28;;
72464;SDS011;60471;52.150;4.508;2023-06-10T06:25:16;15.82;;;6.05;;
72464;SDS011;60471;52.150;4.508;2023-06-10T06:27:42;14.32;;;5.78;;
72464;SDS011;60471;52.150;4.508;2023-06-10T06:30:09;16.33;;;6.30;;
72464;SDS011;60471;52.150;4.508;2023-06-10T06:32:35;14.70;;;6.43;;
72464;SDS011;60471;52.150;4.508;2023-06-10T06:35:02;14.52;;;6.10;;
72464;SDS011;60471;52.150;4.508;2023-06-10T06:37:28;12.43;;;6.18;;
72464;SDS011;60471;52.150;4.508;2023-06-10T06:39:54;18.48;;;6.93;;
72464;SDS011;60471;52.150;4.508;2023-06-10T06:42:20;13.63;;;6.97;;
72464;SDS011;60471;52.150;4.508;2023-06-10T06:44:47;15.65;;;6.50;;
72464;SDS011;60471;52.150;4.508;2023-06-10T06:47:13;15.10;;;6.00;;
72464;SDS011;60471;52.150;4.508;2023-06-10T06:49:39;16.10;;;6.22;;
72464;SDS011;60471;52.150;4.508;2023-06-10T06:52:06;14.20;;;6.15;;
72464;SDS011;60471;52.150;4.508;2023-06-10T06:54:32;15.85;;;5.80;;
72464;SDS011;60471;52.150;4.508;2023-06-10T06:56:58;15.75;;;6.03;;
72464;SDS011;60471;52.150;4.508;2023-06-10T06:59:25;15.90;;;5.85;;
72464;SDS011;60471;52.150;4.508;2023-06-10T07:01:51;13.65;;;5.45;;
72464;SDS011;60471;52.150;4.508;2023-06-10T07:04:19;15.30;;;5.68;;
72464;SDS011;60471;52.150;4.508;2023-06-10T07:06:47;13.93;;;6.40;;
72464;SDS011;60471;52.150;4.508;2023-06-10T07:09:16;13.98;;;5.63;;
72464;SDS011;60471;52.150;4.508;2023-06-10T07:11:43;15.85;;;6.40;;
72464;SDS011;60471;52.150;4.508;2023-06-10T07:14:09;13.25;;;5.95;;
72464;SDS011;60471;52.150;4.508;2023-06-10T07:16:35;14.90;;;6.25;;
72464;SDS011;60471;52.150;4.508;2023-06-10T07:19:01;13.60;;;6.35;;
72464;SDS011;60471;52.150;4.508;2023-06-10T07:21:29;13.73;;;6.45;;
72464;SDS011;60471;52.150;4.508;2023-06-10T07:23:56;15.70;;;5.95;;
72464;SDS011;60471;52.150;4.508;2023-06-10T07:26:22;13.18;;;6.60;;
72464;SDS011;60471;52.150;4.508;2023-06-10T07:28:48;13.15;;;5.97;;
72464;SDS011;60471;52.150;4.508;2023-06-10T07:31:14;13.02;;;5.93;;
72464;SDS011;60471;52.150;4.508;2023-06-10T07:33:41;14.60;;;6.80;;
72464;SDS011;60471;52.150;4.508;2023-06-10T07:36:09;16.33;;;7.68;;
72464;SDS011;60471;52.150;4.508;2023-06-10T07:38:35;23.55;;;8.50;;
72464;SDS011;60471;52.150;4.508;2023-06-10T07:41:02;14.52;;;7.40;;
72464;SDS011;60471;52.150;4.508;2023-06-10T07:43:29;16.45;;;7.57;;
72464;SDS011;60471;52.150;4.508;2023-06-10T07:45:55;14.60;;;7.10;;
72464;SDS011;60471;52.150;4.508;2023-06-10T07:48:21;12.63;;;6.35;;
72464;SDS011;60471;52.150;4.508;2023-06-10T07:50:47;13.10;;;7.00;;
72464;SDS011;60471;52.150;4.508;2023-06-10T07:53:14;23.42;;;8.30;;
72464;SDS011;60471;52.150;4.508;2023-06-10T07:55:40;15.90;;;7.40;;
72464;SDS011;60471;52.150;4.508;2023-06-10T07:58:06;18.40;;;8.65;;
72464;SDS011;60471;52.150;4.508;2023-06-10T08:00:32;15.00;;;7.78;;
72464;SDS011;60471;52.150;4.508;2023-06-10T08:02:59;15.95;;;8.50;;
72464;SDS011;60471;52.150;4.508;2023-06-10T08:05:25;20.27;;;7.38;;
72464;SDS011;60471;52.150;4.508;2023-06-10T08:07:52;17.17;;;7.38;;
72464;SDS011;60471;52.150;4.508;2023-06-10T08:10:18;14.30;;;7.45;;
72464;SDS011;60471;52.150;4.508;2023-06-10T08:12:44;17.33;;;6.55;;
72464;SDS011;60471;52.150;4.508;2023-06-10T08:15:11;12.90;;;6.63;;
72464;SDS011;60471;52.150;4.508;2023-06-10T08:17:37;13.25;;;6.50;;
72464;SDS011;60471;52.150;4.508;2023-06-10T08:20:04;15.07;;;6.65;;
72464;SDS011;60471;52.150;4.508;2023-06-10T08:22:32;13.27;;;6.30;;
72464;SDS011;60471;52.150;4.508;2023-06-10T08:24:59;19.02;;;7.15;;
72464;SDS011;60471;52.150;4.508;2023-06-10T08:27:25;20.08;;;6.97;;
72464;SDS011;60471;52.150;4.508;2023-06-10T08:29:51;24.55;;;6.72;;
72464;SDS011;60471;52.150;4.508;2023-06-10T08:32:18;16.08;;;6.82;;
72464;SDS011;60471;52.150;4.508;2023-06-10T08:34:44;20.48;;;7.95;;
72464;SDS011;60471;52.150;4.508;2023-06-10T08:37:10;16.25;;;8.20;;
72464;SDS011;60471;52.150;4.508;2023-06-10T08:39:36;19.27;;;7.22;;
72464;SDS011;60471;52.150;4.508;2023-06-10T08:44:37;17.45;;;7.10;;
72464;SDS011;60471;52.150;4.508;2023-06-10T08:47:13;19.55;;;8.30;;
72464;SDS011;60471;52.150;4.508;2023-06-10T08:49:46;19.15;;;7.40;;
72464;SDS011;60471;52.150;4.508;2023-06-10T08:52:14;14.55;;;7.32;;
72464;SDS011;60471;52.150;4.508;2023-06-10T08:54:45;17.15;;;7.35;;
72464;SDS011;60471;52.150;4.508;2023-06-10T08:57:29;15.82;;;7.32;;
72464;SDS011;60471;52.150;4.508;2023-06-10T08:59:57;14.73;;;7.28;;
72464;SDS011;60471;52.150;4.508;2023-06-10T09:02:24;17.17;;;6.88;;
72464;SDS011;60471;52.150;4.508;2023-06-10T09:04:50;16.15;;;6.55;;
72464;SDS011;60471;52.150;4.508;2023-06-10T09:07:18;14.23;;;7.03;;
72464;SDS011;60471;52.150;4.508;2023-06-10T09:09:46;15.15;;;6.80;;
72464;SDS011;60471;52.150;4.508;2023-06-10T09:12:14;14.10;;;6.57;;
72464;SDS011;60471;52.150;4.508;2023-06-10T09:14:44;15.77;;;6.68;;
72464;SDS011;60471;52.150;4.508;2023-06-10T09:17:10;12.93;;;5.88;;
72464;SDS011;60471;52.150;4.508;2023-06-10T09:19:38;16.10;;;6.68;;
72464;SDS011;60471;52.150;4.508;2023-06-10T09:22:06;15.35;;;6.32;;
72464;SDS011;60471;52.150;4.508;2023-06-10T09:24:32;14.55;;;6.72;;
72464;SDS011;60471;52.150;4.508;2023-06-10T09:27:02;16.25;;;6.65;;
72464;SDS011;60471;52.150;4.508;2023-06-10T09:29:37;16.88;;;6.13;;
72464;SDS011;60471;52.150;4.508;2023-06-10T09:32:11;18.17;;;6.82;;
72464;SDS011;60471;52.150;4.508;2023-06-10T09:34:38;11.93;;;5.80;;
72464;SDS011;60471;52.150;4.508;2023-06-10T09:37:05;13.65;;;7.18;;
72464;SDS011;60471;52.150;4.508;2023-06-10T09:39:32;13.57;;;6.68;;
72464;SDS011;60471;52.150;4.508;2023-06-10T09:41:58;15.88;;;7.05;;
72464;SDS011;60471;52.150;4.508;2023-06-10T09:44:24;13.95;;;6.55;;
72464;SDS011;60471;52.150;4.508;2023-06-10T09:46:51;20.75;;;6.28;;
72464;SDS011;60471;52.150;4.508;2023-06-10T09:49:17;13.95;;;5.93;;
72464;SDS011;60471;52.150;4.508;2023-06-10T09:51:50;12.93;;;6.03;;
72464;SDS011;60471;52.150;4.508;2023-06-10T09:54:18;16.48;;;6.18;;
72464;SDS011;60471;52.150;4.508;2023-06-10T09:56:51;17.77;;;5.68;;
72464;SDS011;60471;52.150;4.508;2023-06-10T09:59:51;12.05;;;5.70;;
72464;SDS011;60471;52.150;4.508;2023-06-10T10:02:15;11.73;;;5.50;;
72464;SDS011;60471;52.150;4.508;2023-06-10T10:04:43;13.93;;;5.93;;
72464;SDS011;60471;52.150;4.508;2023-06-10T10:07:10;13.75;;;5.95;;
72464;SDS011;60471;52.150;4.508;2023-06-10T10:09:38;12.30;;;5.70;;
72464;SDS011;60471;52.150;4.508;2023-06-10T10:12:15;11.40;;;5.75;;
72464;SDS011;60471;52.150;4.508;2023-06-10T10:14:43;15.73;;;5.45;;
72464;SDS011;60471;52.150;4.508;2023-06-10T10:17:15;15.23;;;5.68;;
72464;SDS011;60471;52.150;4.508;2023-06-10T10:20:04;16.30;;;5.80;;
72464;SDS011;60471;52.150;4.508;2023-06-10T10:22:37;14.30;;;5.40;;
72464;SDS011;60471;52.150;4.508;2023-06-10T10:25:07;14.05;;;5.68;;
72464;SDS011;60471;52.150;4.508;2023-06-10T10:27:44;13.00;;;5.65;;
72464;SDS011;60471;52.150;4.508;2023-06-10T10:30:17;14.77;;;5.72;;
72464;SDS011;60471;52.150;4.508;2023-06-10T10:35:27;12.50;;;5.57;;
72464;SDS011;60471;52.150;4.508;2023-06-10T10:37:53;12.60;;;5.68;;
72464;SDS011;60471;52.150;4.508;2023-06-10T10:40:21;18.70;;;5.85;;
72464;SDS011;60471;52.150;4.508;2023-06-10T10:42:49;12.68;;;5.20;;
72464;SDS011;60471;52.150;4.508;2023-06-10T10:45:16;12.93;;;5.50;;
72464;SDS011;60471;52.150;4.508;2023-06-10T10:47:46;11.75;;;5.40;;
72464;SDS011;60471;52.150;4.508;2023-06-10T10:50:19;12.50;;;5.20;;
72464;SDS011;60471;52.150;4.508;2023-06-10T10:52:52;11.30;;;5.30;;
72464;SDS011;60471;52.150;4.508;2023-06-10T10:55:23;18.05;;;6.55;;
72464;SDS011;60471;52.150;4.508;2023-06-10T11:00:32;13.18;;;5.45;;
72464;SDS011;60471;52.150;4.508;2023-06-10T11:03:05;12.75;;;5.38;;
72464;SDS011;60471;52.150;4.508;2023-06-10T11:05:36;15.70;;;5.38;;
72464;SDS011;60471;52.150;4.508;2023-06-10T11:08:45;13.10;;;5.15;;
72464;SDS011;60471;52.150;4.508;2023-06-10T11:11:17;15.38;;;4.75;;
72464;SDS011;60471;52.150;4.508;2023-06-10T11:16:28;14.45;;;5.13;;
72464;SDS011;60471;52.150;4.508;2023-06-10T11:18:55;12.18;;;5.00;;
72464;SDS011;60471;52.150;4.508;2023-06-10T11:21:25;16.13;;;4.97;;
72464;SDS011;60471;52.150;4.508;2023-06-10T11:23:51;15.48;;;5.40;;
72464;SDS011;60471;52.150;4.508;2023-06-10T11:26:29;14.30;;;5.13;;
72464;SDS011;60471;52.150;4.508;2023-06-10T11:34:04;17.40;;;5.47;;
72464;SDS011;60471;52.150;4.508;2023-06-10T11:36:32;13.25;;;5.57;;
72464;SDS011;60471;52.150;4.508;2023-06-10T11:39:03;11.82;;;4.85;;
72464;SDS011;60471;52.150;4.508;2023-06-10T11:41:31;9.52;;;5.07;;
72464;SDS011;60471;52.150;4.508;2023-06-10T11:44:13;11.15;;;4.70;;
72464;SDS011;60471;52.150;4.508;2023-06-10T11:46:40;14.23;;;5.07;;
72464;SDS011;60471;52.150;4.508;2023-06-10T11:49:11;15.73;;;5.13;;
72464;SDS011;60471;52.150;4.508;2023-06-10T11:51:38;11.18;;;4.63;;
72464;SDS011;60471;52.150;4.508;2023-06-10T11:54:09;11.10;;;4.43;;
72464;SDS011;60471;52.150;4.508;2023-06-10T11:56:35;11.50;;;4.80;;
72464;SDS011;60471;52.150;4.508;2023-06-10T11:59:03;11.77;;;4.97;;
72464;SDS011;60471;52.150;4.508;2023-06-10T12:01:33;13.32;;;5.00;;
72464;SDS011;60471;52.150;4.508;2023-06-10T12:04:08;12.73;;;4.55;;
72464;SDS011;60471;52.150;4.508;2023-06-10T12:06:46;12.02;;;5.20;;
72464;SDS011;60471;52.150;4.508;2023-06-10T12:09:19;12.60;;;4.85;;
72464;SDS011;60471;52.150;4.508;2023-06-10T12:12:08;14.77;;;4.75;;
72464;SDS011;60471;52.150;4.508;2023-06-10T12:14:52;12.13;;;5.22;;
72464;SDS011;60471;52.150;4.508;2023-06-10T12:19:56;12.95;;;4.40;;
72464;SDS011;60471;52.150;4.508;2023-06-10T12:22:23;9.88;;;4.47;;
72464;SDS011;60471;52.150;4.508;2023-06-10T12:24:57;11.38;;;4.60;;
72464;SDS011;60471;52.150;4.508;2023-06-10T12:27:29;11.25;;;4.47;;
72464;SDS011;60471;52.150;4.508;2023-06-10T12:29:57;9.55;;;4.32;;
72464;SDS011;60471;52.150;4.508;2023-06-10T12:32:39;9.52;;;4.50;;
72464;SDS011;60471;52.150;4.508;2023-06-10T12:35:07;11.18;;;4.28;;
72464;SDS011;60471;52.150;4.508;2023-06-10T12:37:36;12.63;;;4.40;;
72464;SDS011;60471;52.150;4.508;2023-06-10T12:40:03;15.75;;;4.93;;
72464;SDS011;60471;52.150;4.508;2023-06-10T12:42:35;14.65;;;4.57;;
72464;SDS011;60471;52.150;4.508;2023-06-10T12:45:03;13.40;;;4.85;;
72464;SDS011;60471;52.150;4.508;2023-06-10T12:47:33;11.27;;;4.38;;
72464;SDS011;60471;52.150;4.508;2023-06-10T12:50:04;15.63;;;4.63;;
72464;SDS011;60471;52.150;4.508;2023-06-10T12:52:32;9.20;;;4.32;;
72464;SDS011;60471;52.150;4.508;2023-06-10T12:54:58;10.05;;;4.65;;
72464;SDS011;60471;52.150;4.508;2023-06-10T12:57:26;13.27;;;4.40;;
72464;SDS011;60471;52.150;4.508;2023-06-10T12:59:52;13.90;;;4.05;;
72464;SDS011;60471;52.150;4.508;2023-06-10T13:02:18;10.90;;;4.18;;
72464;SDS011;60471;52.150;4.508;2023-06-10T13:04:46;13.35;;;4.57;;
72464;SDS011;60471;52.150;4.508;2023-06-10T13:07:13;10.68;;;4.20;;
72464;SDS011;60471;52.150;4.508;2023-06-10T13:09:39;13.30;;;4.30;;
72464;SDS011;60471;52.150;4.508;2023-06-10T13:12:06;11.43;;;4.45;;
72464;SDS011;60471;52.150;4.508;2023-06-10T13:14:33;11.43;;;3.97;;
72464;SDS011;60471;52.150;4.508;2023-06-10T13:17:00;13.07;;;4.22;;
72464;SDS011;60471;52.150;4.508;2023-06-10T13:19:26;14.07;;;4.78;;
72464;SDS011;60471;52.150;4.508;2023-06-10T13:21:52;11.90;;;4.40;;
72464;SDS011;60471;52.150;4.508;2023-06-10T13:24:18;10.45;;;4.30;;
72464;SDS011;60471;52.150;4.508;2023-06-10T13:26:45;13.27;;;4.72;;
72464;SDS011;60471;52.150;4.508;2023-06-10T13:29:12;10.32;;;4.20;;
72464;SDS011;60471;52.150;4.508;2023-06-10T13:31:40;11.23;;;4.00;;
72464;SDS011;60471;52.150;4.508;2023-06-10T13:34:07;10.95;;;4.47;;
72464;SDS011;60471;52.150;4.508;2023-06-10T13:36:33;11.20;;;4.07;;
72464;SDS011;60471;52.150;4.508;2023-06-10T13:38:59;12.43;;;4.60;;
72464;SDS011;60471;52.150;4.508;2023-06-10T13:41:26;10.10;;;4.10;;
72464;SDS011;60471;52.150;4.508;2023-06-10T13:43:54;10.85;;;4.32;;
72464;SDS011;60471;52.150;4.508;2023-06-10T13:46:21;12.15;;;4.38;;
72464;SDS011;60471;52.150;4.508;2023-06-10T13:48:48;9.52;;;4.55;;
72464;SDS011;60471;52.150;4.508;2023-06-10T13:51:14;9.82;;;3.90;;
72464;SDS011;60471;52.150;4.508;2023-06-10T13:53:40;10.00;;;4.10;;
72464;SDS011;60471;52.150;4.508;2023-06-10T13:56:06;10.73;;;4.40;;
72464;SDS011;60471;52.150;4.508;2023-06-10T13:58:33;10.63;;;3.88;;
72464;SDS011;60471;52.150;4.508;2023-06-10T14:01:04;13.43;;;4.40;;
72464;SDS011;60471;52.150;4.508;2023-06-10T14:03:31;9.73;;;3.72;;
72464;SDS011;60471;52.150;4.508;2023-06-10T14:05:58;10.95;;;4.05;;
72464;SDS011;60471;52.150;4.508;2023-06-10T14:08:24;10.50;;;3.95;;
72464;SDS011;60471;52.150;4.508;2023-06-10T14:10:50;12.95;;;4.32;;
72464;SDS011;60471;52.150;4.508;2023-06-10T14:13:17;11.90;;;4.50;;
72464;SDS011;60471;52.150;4.508;2023-06-10T14:15:43;9.25;;;4.10;;
72464;SDS011;60471;52.150;4.508;2023-06-10T14:18:10;11.18;;;4.43;;
72464;SDS011;60471;52.150;4.508;2023-06-10T14:20:36;10.25;;;3.97;;
72464;SDS011;60471;52.150;4.508;2023-06-10T14:23:02;11.93;;;3.95;;
72464;SDS011;60471;52.150;4.508;2023-06-10T14:25:29;13.05;;;4.20;;
72464;SDS011;60471;52.150;4.508;2023-06-10T14:27:55;8.93;;;4.13;;
72464;SDS011;60471;52.150;4.508;2023-06-10T14:30:21;10.68;;;3.80;;
72464;SDS011;60471;52.150;4.508;2023-06-10T14:32:47;10.15;;;4.07;;
72464;SDS011;60471;52.150;4.508;2023-06-10T14:35:14;10.73;;;3.80;;
72464;SDS011;60471;52.150;4.508;2023-06-10T14:37:40;11.27;;;3.70;;
72464;SDS011;60471;52.150;4.508;2023-06-10T14:40:07;10.70;;;4.05;;
72464;SDS011;60471;52.150;4.508;2023-06-10T14:42:34;10.68;;;4.47;;
72464;SDS011;60471;52.150;4.508;2023-06-10T14:45:00;9.57;;;3.83;;
72464;SDS011;60471;52.150;4.508;2023-06-10T14:47:26;11.30;;;3.90;;
72464;SDS011;60471;52.150;4.508;2023-06-10T14:49:53;10.95;;;3.95;;
72464;SDS011;60471;52.150;4.508;2023-06-10T14:52:19;10.63;;;3.95;;
72464;SDS011;60471;52.150;4.508;2023-06-10T14:54:45;8.90;;;3.80;;
72464;SDS011;60471;52.150;4.508;2023-06-10T14:57:11;8.90;;;3.78;;
72464;SDS011;60471;52.150;4.508;2023-06-10T14:59:37;8.75;;;3.58;;
72464;SDS011;60471;52.150;4.508;2023-06-10T15:02:04;13.25;;;4.05;;